createdAt,value
2022-08-18T00:02:07.653Z,100.00
2022-08-18T00:04:49.170Z,100.00
2022-08-18T00:07:24.451Z,100.00
2022-08-18T00:09:51.698Z,100.00
2022-08-18T00:12:23.436Z,100.00
2022-08-18T00:14:50.924Z,100.00
2022-08-18T00:17:18.504Z,100.00
2022-08-18T00:19:48.197Z,100.00
2022-08-18T00:22:18.944Z,100.00
2022-08-18T00:24:49.227Z,100.00
2022-08-18T00:27:42.870Z,100.00
2022-08-18T00:30:13.793Z,100.00
2022-08-18T00:32:44.026Z,100.00
2022-08-18T00:35:23.948Z,100.00
2022-08-18T00:37:50.984Z,100.00
2022-08-18T00:40:21.114Z,100.00
2022-08-18T00:42:52.605Z,100.00
2022-08-18T00:45:24.093Z,100.00
2022-08-18T00:47:51.239Z,100.00
2022-08-18T00:50:26.605Z,100.00
2022-08-18T00:52:59.307Z,100.00
2022-08-18T00:55:29.715Z,100.00
2022-08-18T00:58:03.662Z,100.00
2022-08-18T01:00:30.565Z,100.00
2022-08-18T01:03:02.055Z,100.00
2022-08-18T01:05:45.854Z,100.00
2022-08-18T01:08:15.699Z,100.00
2022-08-18T01:10:45.325Z,100.00
2022-08-18T01:13:12.142Z,100.00
2022-08-18T01:15:38.843Z,100.00
2022-08-18T01:18:32.651Z,100.00
2022-08-18T01:21:41.021Z,100.00
2022-08-18T01:24:13.019Z,100.00
2022-08-18T01:26:49.990Z,100.00
2022-08-18T01:29:19.455Z,100.00
2022-08-18T01:31:56.411Z,100.00
2022-08-18T01:34:28.324Z,100.00
2022-08-18T01:36:56.730Z,100.00
2022-08-18T01:41:25.164Z,100.00
2022-08-18T01:42:12.019Z,100.00
2022-08-18T01:44:41.704Z,100.00
2022-08-18T01:47:10.772Z,100.00
2022-08-18T01:49:39.131Z,100.00
2022-08-18T01:52:07.406Z,100.00
2022-08-18T01:54:34.379Z,100.00
2022-08-18T01:57:01.939Z,100.00
2022-08-18T01:59:28.644Z,100.00
2022-08-18T02:01:55.825Z,100.00
2022-08-18T02:04:36.516Z,100.00
2022-08-18T02:07:07.825Z,100.00
2022-08-18T02:09:37.658Z,100.00
2022-08-18T02:12:05.975Z,100.00
2022-08-18T02:14:34.012Z,100.00
2022-08-18T02:17:02.907Z,100.00
2022-08-18T02:19:46.898Z,100.00
2022-08-18T02:22:19.162Z,100.00
2022-08-18T02:24:46.268Z,100.00
2022-08-18T02:27:14.568Z,100.00
2022-08-18T02:29:41.494Z,100.00
2022-08-18T02:32:08.801Z,100.00
2022-08-18T02:34:35.886Z,100.00
2022-08-18T02:37:03.411Z,100.00
2022-08-18T02:39:30.717Z,100.00
2022-08-18T02:41:57.511Z,100.00
2022-08-18T02:44:24.235Z,100.00
2022-08-18T02:46:54.715Z,100.00
2022-08-18T02:49:21.459Z,100.00
2022-08-18T02:51:48.308Z,100.00
2022-08-18T02:54:15.090Z,100.00
2022-08-18T02:56:42.590Z,100.00
2022-08-18T02:59:15.320Z,100.00
2022-08-18T03:01:46.869Z,100.00
2022-08-18T03:04:16.030Z,100.00
2022-08-18T03:06:43.203Z,100.00
2022-08-18T03:09:11.849Z,100.00
2022-08-18T03:11:38.777Z,100.00
2022-08-18T03:14:07.441Z,100.00
2022-08-18T03:16:40.520Z,100.00
2022-08-18T03:19:20.259Z,100.00
2022-08-18T03:21:48.012Z,100.00
2022-08-18T03:24:19.710Z,100.00
2022-08-18T03:26:54.524Z,100.00
2022-08-18T03:29:22.016Z,100.00
2022-08-18T03:31:49.804Z,100.00
2022-08-18T03:34:21.941Z,100.00
2022-08-18T03:36:51.265Z,100.00
2022-08-18T03:39:19.557Z,100.00
2022-08-18T03:41:58.001Z,100.00
2022-08-18T03:44:33.435Z,100.00
2022-08-18T03:47:03.188Z,100.00
2022-08-18T03:49:31.113Z,100.00
2022-08-18T03:52:00.925Z,100.00
2022-08-18T03:54:28.686Z,100.00
2022-08-18T03:56:55.969Z,100.00
2022-08-18T03:59:24.873Z,100.00
2022-08-18T04:01:54.020Z,100.00
2022-08-18T04:04:24.824Z,100.00
2022-08-18T04:06:54.486Z,100.00
2022-08-18T04:09:24.606Z,100.00
2022-08-18T04:11:52.292Z,100.00
2022-08-18T04:14:21.487Z,100.00
2022-08-18T04:16:49.269Z,100.00
2022-08-18T04:19:26.792Z,100.00
2022-08-18T04:21:56.588Z,100.00
2022-08-18T04:24:24.114Z,100.00
2022-08-18T04:26:51.811Z,100.00
2022-08-18T04:29:21.380Z,100.00
2022-08-18T04:31:50.460Z,100.00
2022-08-18T04:34:18.434Z,100.00
2022-08-18T04:36:45.432Z,100.00
2022-08-18T04:39:13.716Z,100.00
2022-08-18T04:41:43.571Z,100.00
2022-08-18T04:44:11.752Z,100.00
2022-08-18T04:46:41.762Z,100.00
2022-08-18T04:49:10.608Z,100.00
2022-08-18T04:52:36.138Z,100.00
2022-08-18T04:54:29.403Z,100.00
2022-08-18T04:56:56.082Z,100.00
2022-08-18T04:59:22.881Z,100.00
2022-08-18T05:01:49.544Z,100.00
2022-08-18T05:04:17.709Z,100.00
2022-08-18T05:06:45.932Z,100.00
2022-08-18T05:09:16.547Z,100.00
2022-08-18T05:11:47.103Z,100.00
2022-08-18T05:14:14.715Z,100.00
2022-08-18T05:16:48.121Z,100.00
2022-08-18T05:19:23.113Z,100.00
2022-08-18T05:21:51.417Z,100.00
2022-08-18T05:24:20.839Z,100.00
2022-08-18T05:26:49.098Z,100.00
2022-08-18T05:29:18.520Z,100.00
2022-08-18T05:31:47.189Z,100.00
2022-08-18T05:34:14.058Z,100.00
2022-08-18T05:36:50.412Z,100.00
2022-08-18T05:39:54.224Z,100.00
2022-08-18T05:42:23.107Z,100.00
2022-08-18T05:44:51.757Z,100.00
2022-08-18T05:47:30.337Z,100.00
2022-08-18T05:50:05.701Z,100.00
2022-08-18T05:52:47.735Z,100.00
2022-08-18T05:55:34.940Z,100.00
2022-08-18T05:58:06.288Z,100.00
2022-08-18T06:00:33.572Z,100.00
2022-08-18T06:03:11.495Z,100.00
2022-08-18T06:05:49.157Z,100.00
2022-08-18T06:08:17.394Z,100.00
2022-08-18T06:10:48.607Z,100.00
2022-08-18T06:13:15.684Z,100.00
2022-08-18T06:16:10.750Z,100.00
2022-08-18T06:18:43.138Z,100.00
2022-08-18T06:21:36.884Z,100.00
2022-08-18T06:24:20.832Z,100.00
2022-08-18T06:27:03.718Z,100.00
2022-08-18T06:30:07.604Z,100.00
2022-08-18T06:32:56.840Z,100.00
2022-08-18T06:35:37.579Z,100.00
2022-08-18T06:38:35.370Z,100.00
2022-08-18T06:41:42.215Z,100.00
2022-08-18T06:44:33.808Z,100.00
2022-08-18T06:47:04.342Z,100.00
2022-08-18T06:50:05.803Z,100.00
2022-08-18T06:52:39.756Z,100.00
2022-08-18T06:55:16.943Z,100.00
2022-08-18T06:57:57.771Z,100.00
2022-08-18T07:00:27.733Z,100.00
2022-08-18T07:03:13.034Z,100.00
2022-08-18T07:06:02.303Z,100.00
2022-08-18T07:08:31.872Z,100.00
2022-08-18T07:11:20.357Z,100.00
2022-08-18T07:14:03.577Z,100.00
2022-08-18T07:19:29.273Z,100.00
2022-08-18T07:22:14.761Z,100.00
2022-08-18T07:24:46.942Z,100.00
2022-08-18T07:27:19.659Z,100.00
2022-08-18T07:30:08.951Z,100.00
2022-08-18T07:32:49.784Z,100.00
2022-08-18T07:35:24.240Z,100.00
2022-08-18T07:37:53.983Z,100.00
2022-08-18T07:40:42.096Z,100.00
2022-08-18T07:43:14.757Z,100.00
2022-08-18T07:45:44.740Z,99.77
2022-08-18T07:48:38.556Z,97.88
2022-08-18T07:51:33.903Z,99.04
2022-08-18T07:54:25.197Z,98.82
2022-08-18T07:57:26.159Z,98.36
2022-08-18T08:00:35.472Z,98.69
2022-08-18T08:03:37.648Z,99.08
2022-08-18T08:06:08.695Z,99.39
2022-08-18T08:08:44.131Z,99.45
2022-08-18T08:11:37.919Z,99.18
2022-08-18T08:14:13.376Z,98.67
2022-08-18T08:16:50.241Z,98.92
2022-08-18T08:20:00.396Z,98.92
2022-08-18T08:22:44.156Z,99.31
2022-08-18T08:25:42.898Z,98.85
2022-08-18T08:28:24.960Z,99.58
2022-08-18T08:31:33.115Z,99.37
2022-08-18T08:34:18.542Z,99.06
2022-08-18T08:36:47.343Z,98.18
2022-08-18T08:39:16.831Z,97.34
2022-08-18T08:42:30.438Z,96.61
2022-08-18T08:45:09.115Z,95.69
2022-08-18T08:48:09.388Z,94.23
2022-08-18T08:50:50.281Z,93.60
2022-08-18T08:53:26.348Z,93.42
2022-08-18T08:56:03.106Z,93.43
2022-08-18T08:58:44.439Z,91.56
2022-08-18T09:01:20.981Z,90.61
2022-08-18T09:04:01.493Z,88.36
2022-08-18T09:06:47.802Z,88.32
2022-08-18T09:09:42.567Z,87.32
2022-08-18T09:12:32.443Z,87.48
2022-08-18T09:15:04.009Z,86.21
2022-08-18T09:17:58.602Z,82.14
2022-08-18T09:20:37.993Z,81.58
2022-08-18T09:23:12.420Z,81.05
2022-08-18T09:25:42.163Z,80.19
2022-08-18T09:28:17.193Z,80.72
2022-08-18T09:31:02.747Z,79.16
2022-08-18T09:33:44.471Z,79.35
2022-08-18T09:36:35.951Z,79.81
2022-08-18T09:39:50.284Z,79.59
2022-08-18T09:42:50.720Z,79.81
2022-08-18T09:45:33.300Z,78.36
2022-08-18T09:48:25.515Z,77.93
2022-08-18T09:50:58.020Z,77.53
2022-08-18T09:53:46.438Z,77.09
2022-08-18T09:56:15.736Z,76.43
2022-08-18T09:59:01.129Z,77.50
2022-08-18T10:01:38.306Z,76.83
2022-08-18T10:04:21.678Z,77.12
2022-08-18T10:06:49.587Z,76.57
2022-08-18T10:09:44.067Z,76.86
2022-08-18T10:12:40.576Z,74.89
2022-08-18T10:15:34.072Z,76.43
2022-08-18T10:18:29.450Z,76.42
2022-08-18T10:24:36.865Z,77.47
2022-08-18T10:27:08.996Z,76.66
2022-08-18T10:29:49.505Z,76.32
2022-08-18T10:32:16.440Z,76.58
2022-08-18T10:34:52.119Z,75.85
2022-08-18T10:37:32.239Z,75.11
2022-08-18T10:40:15.507Z,74.38
2022-08-18T10:42:54.095Z,74.58
2022-08-18T10:45:29.032Z,72.78
2022-08-18T10:48:05.009Z,71.00
2022-08-18T10:50:50.263Z,71.63
2022-08-18T10:56:50.379Z,70.80
2022-08-18T10:59:50.510Z,70.35
2022-08-18T11:02:38.109Z,68.91
2022-08-18T11:08:02.232Z,67.33
2022-08-18T11:11:06.661Z,66.51
2022-08-18T11:14:03.050Z,64.67
2022-08-18T11:16:37.929Z,63.70
2022-08-18T11:19:14.721Z,64.73
2022-08-18T11:21:46.348Z,63.33
2022-08-18T11:24:27.420Z,62.58
2022-08-18T11:27:02.240Z,63.01
2022-08-18T11:29:38.272Z,62.72
2022-08-18T11:32:12.063Z,63.10
2022-08-18T11:34:51.979Z,62.01
2022-08-18T11:37:54.179Z,60.90
2022-08-18T11:43:21.303Z,61.43
2022-08-18T11:45:58.258Z,60.32
2022-08-18T11:48:51.911Z,60.86
2022-08-18T11:51:32.821Z,60.67
2022-08-18T11:54:21.967Z,59.97
2022-08-18T11:56:50.438Z,59.19
2022-08-18T11:59:52.826Z,59.16
2022-08-18T12:02:18.256Z,59.98
2022-08-18T12:04:53.122Z,59.83
2022-08-18T12:07:57.570Z,59.43
2022-08-18T12:10:29.373Z,58.55
2022-08-18T12:13:00.405Z,57.53
2022-08-18T12:15:46.583Z,57.58
2022-08-18T12:18:18.693Z,58.99
2022-08-18T12:20:53.381Z,59.44
2022-08-18T12:23:20.083Z,59.04
2022-08-18T12:25:48.138Z,59.84
2022-08-18T12:28:19.419Z,62.76
2022-08-18T12:30:48.966Z,60.06
2022-08-18T12:33:25.431Z,58.58
2022-08-18T12:35:52.724Z,58.57
2022-08-18T12:38:19.402Z,59.84
2022-08-18T12:40:46.159Z,59.91
2022-08-18T12:43:13.089Z,57.50
2022-08-18T12:45:41.488Z,57.05
2022-08-18T12:48:09.247Z,56.24
2022-08-18T12:50:49.674Z,55.53
2022-08-18T12:53:17.260Z,56.88
2022-08-18T12:55:45.605Z,58.29
2022-08-18T12:58:12.662Z,59.39
2022-08-18T13:00:41.043Z,60.55
2022-08-18T13:03:08.464Z,60.12
2022-08-18T13:05:36.166Z,58.95
2022-08-18T13:08:06.432Z,58.43
2022-08-18T13:10:43.202Z,58.56
2022-08-18T13:13:15.534Z,58.96
2022-08-18T13:15:44.274Z,59.85
2022-08-18T13:18:28.633Z,58.40
2022-08-18T13:20:58.532Z,56.71
2022-08-18T13:23:27.517Z,57.13
2022-08-18T13:26:01.709Z,56.97
2022-08-18T13:28:30.847Z,55.67
2022-08-18T13:31:05.420Z,55.52
2022-08-18T13:33:53.555Z,54.93
2022-08-18T13:36:20.201Z,54.84
2022-08-18T13:38:54.655Z,53.97
2022-08-18T13:41:23.234Z,53.81
2022-08-18T13:43:50.224Z,53.49
2022-08-18T13:46:19.726Z,54.93
2022-08-18T13:48:59.956Z,54.24
2022-08-18T13:51:27.870Z,54.89
2022-08-18T13:54:17.867Z,55.81
2022-08-18T13:56:42.964Z,57.00
2022-08-18T13:59:21.633Z,56.39
2022-08-18T14:01:52.951Z,55.56
2022-08-18T14:04:22.868Z,55.27
2022-08-18T14:06:57.383Z,55.60
2022-08-18T14:09:37.212Z,55.46
2022-08-18T14:12:15.322Z,57.49
2022-08-18T14:14:49.350Z,56.68
2022-08-18T14:17:19.561Z,56.87
2022-08-18T14:20:04.900Z,57.44
2022-08-18T14:22:55.748Z,57.32
2022-08-18T14:25:41.010Z,57.18
2022-08-18T14:28:09.255Z,56.90
2022-08-18T14:30:39.517Z,57.48
2022-08-18T14:33:11.604Z,57.79
2022-08-18T14:36:06.745Z,57.91
2022-08-18T14:38:25.182Z,57.44
2022-08-18T14:40:52.107Z,58.27
2022-08-18T14:43:24.985Z,58.27
2022-08-18T14:45:53.759Z,58.39
2022-08-18T14:48:27.514Z,58.95
2022-08-18T14:50:56.252Z,59.26
2022-08-18T14:53:26.513Z,58.49
2022-08-18T14:55:53.651Z,58.91
2022-08-18T14:58:21.854Z,58.83
2022-08-18T15:00:54.066Z,58.94
2022-08-18T15:03:31.105Z,59.09
2022-08-18T15:06:00.533Z,58.98
2022-08-18T15:08:28.265Z,60.65
2022-08-18T15:10:55.522Z,60.62
2022-08-18T15:13:26.512Z,60.71
2022-08-18T15:15:55.906Z,60.38
2022-08-18T15:18:29.384Z,60.83
2022-08-18T15:21:19.520Z,60.90
2022-08-18T15:24:22.138Z,61.02
2022-08-18T15:26:57.867Z,61.28
2022-08-18T15:29:30.552Z,62.37
2022-08-18T15:32:05.554Z,63.04
2022-08-18T15:34:46.466Z,62.73
2022-08-18T15:37:15.958Z,62.62
2022-08-18T15:39:55.534Z,63.43
2022-08-18T15:42:23.682Z,64.03
2022-08-18T15:44:52.711Z,63.67
2022-08-18T15:47:21.261Z,63.68
2022-08-18T15:49:48.490Z,63.85
2022-08-18T15:52:17.639Z,64.13
2022-08-18T15:54:48.029Z,64.51
2022-08-18T15:57:38.446Z,64.29
2022-08-18T16:00:06.228Z,64.95
2022-08-18T16:02:39.294Z,64.42
2022-08-18T16:05:10.335Z,65.35
2022-08-18T16:07:41.280Z,65.22
2022-08-18T16:10:21.285Z,66.00
2022-08-18T16:12:49.106Z,66.25
2022-08-18T16:15:19.812Z,66.41
2022-08-18T16:17:49.615Z,66.76
2022-08-18T16:20:18.653Z,66.68
2022-08-18T16:22:46.913Z,66.80
2022-08-18T16:25:14.451Z,67.38
2022-08-18T16:27:41.840Z,67.35
2022-08-18T16:30:11.301Z,67.33
2022-08-18T16:32:38.078Z,67.74
2022-08-18T16:35:06.226Z,68.36
2022-08-18T16:37:33.099Z,68.38
2022-08-18T16:39:59.858Z,68.88
2022-08-18T16:42:32.170Z,69.24
2022-08-18T16:44:59.775Z,69.47
2022-08-18T16:47:27.034Z,69.55
2022-08-18T16:49:58.649Z,69.82
2022-08-18T16:52:25.605Z,69.92
2022-08-18T16:54:57.829Z,70.07
2022-08-18T16:57:54.116Z,70.17
2022-08-18T17:00:42.558Z,70.36
2022-08-18T17:03:28.760Z,70.52
2022-08-18T17:06:05.027Z,69.92
2022-08-18T17:08:34.177Z,70.06
2022-08-18T17:11:02.228Z,69.77
2022-08-18T17:13:29.733Z,69.78
2022-08-18T17:15:56.659Z,69.57
2022-08-18T17:18:24.503Z,70.18
2022-08-18T17:20:51.977Z,69.76
2022-08-18T17:23:21.046Z,69.82
2022-08-18T17:25:48.751Z,70.27
2022-08-18T17:28:24.830Z,70.02
2022-08-18T17:30:53.322Z,70.42
2022-08-18T17:33:26.862Z,71.19
2022-08-18T17:35:56.374Z,72.31
2022-08-18T17:38:41.007Z,73.34
2022-08-18T17:41:07.766Z,73.14
2022-08-18T17:46:19.513Z,73.40
2022-08-18T17:49:11.082Z,73.35
2022-08-18T17:51:56.491Z,72.78
2022-08-18T17:54:29.821Z,72.44
2022-08-18T17:57:04.392Z,72.63
2022-08-18T18:00:15.432Z,72.11
2022-08-18T18:02:48.197Z,71.68
2022-08-18T18:05:19.315Z,70.72
2022-08-18T18:07:52.028Z,71.14
2022-08-18T18:10:28.274Z,71.35
2022-08-18T18:13:13.177Z,70.99
2022-08-18T18:16:08.490Z,71.75
2022-08-18T18:18:41.880Z,72.12
2022-08-18T18:21:53.467Z,71.60
2022-08-18T18:24:15.316Z,72.19
2022-08-18T18:26:48.437Z,72.11
2022-08-18T18:29:20.299Z,71.95
2022-08-18T18:32:04.511Z,71.83
2022-08-18T18:35:00.632Z,72.84
2022-08-18T18:37:33.137Z,73.48
2022-08-18T18:40:04.319Z,73.75
2022-08-18T18:42:33.530Z,73.74
2022-08-18T18:45:09.361Z,74.83
2022-08-18T18:48:00.484Z,75.30
2022-08-18T18:50:55.769Z,75.29
2022-08-18T18:53:30.062Z,74.78
2022-08-18T18:56:18.898Z,74.51
2022-08-18T18:59:03.224Z,74.95
2022-08-18T19:01:50.871Z,74.69
2022-08-18T19:04:27.809Z,74.90
2022-08-18T19:06:58.421Z,74.79
2022-08-18T19:09:48.518Z,74.55
2022-08-18T19:12:29.692Z,75.53
2022-08-18T19:15:04.723Z,75.88
2022-08-18T19:17:45.995Z,75.44
2022-08-18T19:20:39.123Z,75.37
2022-08-18T19:23:44.420Z,75.71
2022-08-18T19:26:17.412Z,76.02
2022-08-18T19:29:08.917Z,75.98
2022-08-18T19:31:49.102Z,76.40
2022-08-18T19:34:22.738Z,76.22
2022-08-18T19:37:01.161Z,77.12
2022-08-18T19:39:48.469Z,76.99
2022-08-18T19:42:24.712Z,77.00
2022-08-18T19:45:17.639Z,77.71
2022-08-18T19:47:55.665Z,78.05
2022-08-18T19:50:22.258Z,78.12
2022-08-18T19:53:20.543Z,78.72
2022-08-18T19:56:05.615Z,79.01
2022-08-18T19:59:11.486Z,78.10
2022-08-18T20:01:50.522Z,77.57
2022-08-18T20:04:35.597Z,77.64
2022-08-18T20:07:46.767Z,78.90
2022-08-18T20:10:31.710Z,77.66
2022-08-18T20:13:10.750Z,78.25
2022-08-18T20:16:02.435Z,76.75
2022-08-18T20:18:35.933Z,76.52
2022-08-18T20:21:11.602Z,76.46
2022-08-18T20:23:56.776Z,75.89
2022-08-18T20:26:38.645Z,76.33
2022-08-18T20:29:13.520Z,75.75
2022-08-18T20:31:49.921Z,76.29
2022-08-18T20:34:22.701Z,77.15
2022-08-18T20:36:51.535Z,77.51
2022-08-18T20:39:42.759Z,77.59
2022-08-18T20:42:42.450Z,77.89
2022-08-18T20:45:33.463Z,78.20
2022-08-18T20:48:26.456Z,78.22
2022-08-18T20:51:02.969Z,78.12
2022-08-18T20:54:01.549Z,78.30
2022-08-18T20:56:43.887Z,77.31
2022-08-18T20:59:13.743Z,77.60
2022-08-18T21:01:40.566Z,77.89
2022-08-18T21:04:08.057Z,77.66
2022-08-18T21:06:42.150Z,77.69
2022-08-18T21:09:10.473Z,77.22
2022-08-18T21:11:43.816Z,76.93
2022-08-18T21:14:12.984Z,77.34
2022-08-18T21:16:45.170Z,77.64
2022-08-18T21:19:18.435Z,77.76
2022-08-18T21:21:49.873Z,77.70
2022-08-18T21:24:38.816Z,77.84
2022-08-18T21:27:10.654Z,77.72
2022-08-18T21:29:44.317Z,77.46
2022-08-18T21:32:31.528Z,77.34
2022-08-18T21:35:05.733Z,77.18
2022-08-18T21:37:40.311Z,77.09
2022-08-18T21:40:07.909Z,76.79
2022-08-18T21:42:42.856Z,76.66
2022-08-18T21:45:18.683Z,76.45
2022-08-18T21:47:57.626Z,76.77
2022-08-18T21:50:32.918Z,76.93
2022-08-18T21:53:16.278Z,76.73
2022-08-18T21:55:46.281Z,76.66
2022-08-18T21:58:16.750Z,76.96
2022-08-18T22:01:08.354Z,76.76
2022-08-18T22:03:36.663Z,76.81
2022-08-18T22:06:28.342Z,77.21
2022-08-18T22:09:33.038Z,76.63
2022-08-18T22:12:54.848Z,77.90
2022-08-18T22:15:26.702Z,78.09
2022-08-18T22:17:55.884Z,79.11
2022-08-18T22:20:44.215Z,81.12
2022-08-18T22:23:32.879Z,81.75
2022-08-18T22:26:14.956Z,82.21
2022-08-18T22:29:05.980Z,82.93
2022-08-18T22:31:38.924Z,83.37
2022-08-18T22:34:09.591Z,82.95
2022-08-18T22:36:42.258Z,84.08
2022-08-18T22:39:12.371Z,84.59
2022-08-18T22:41:41.100Z,84.46
2022-08-18T22:44:08.975Z,84.77
2022-08-18T22:46:37.069Z,85.12
2022-08-18T22:49:05.134Z,85.68
2022-08-18T22:51:33.744Z,87.94
2022-08-18T22:54:00.774Z,87.98
2022-08-18T22:56:34.509Z,87.93
2022-08-18T22:59:16.100Z,88.44
2022-08-18T23:01:49.179Z,88.66
2022-08-18T23:04:19.386Z,89.37
2022-08-18T23:06:52.256Z,89.72
2022-08-18T23:09:21.834Z,89.95
2022-08-18T23:11:48.877Z,90.27
2022-08-18T23:14:16.091Z,89.75
2022-08-18T23:16:47.274Z,90.35
2022-08-18T23:19:19.432Z,91.48
2022-08-18T23:21:48.477Z,91.29
2022-08-18T23:24:17.351Z,91.58
2022-08-18T23:26:44.448Z,91.58
2022-08-18T23:29:12.851Z,92.04
2022-08-18T23:31:42.137Z,91.85
2022-08-18T23:34:11.977Z,91.75
2022-08-18T23:36:43.654Z,92.65
2022-08-18T23:39:12.685Z,93.51
2022-08-18T23:41:39.415Z,93.56
2022-08-18T23:44:06.725Z,94.20
2022-08-18T23:46:33.870Z,94.26
2022-08-18T23:49:03.561Z,94.88
2022-08-18T23:51:33.363Z,94.90
2022-08-18T23:54:06.888Z,95.46
2022-08-18T23:56:34.918Z,94.99
2022-08-18T23:59:02.928Z,95.56
